Time;durP1;ratioP1;P1;durP2;ratioP2;P2;SDS_P1;SDS_P2;PMS_P1;PMS_P2;Temp;Humidity;BMP_temperature;BMP_pressure;BME280_temperature;BME280_humidity;BME280_pressure;Samples;Min_cycle;Max_cycle;Signal;HPM_P1;HPM_P2
2023/02/17 00:01:21;;;;;;;19.40;7.57;;;10.00;99.90;;;;;;5032674;28;20018;-76
2023/02/17 00:03:48;;;;;;;16.15;6.85;;;9.90;99.90;;;;;;5033740;28;20049;-76
2023/02/17 00:06:16;;;;;;;19.08;8.13;;;9.90;99.90;;;;;;5032867;28;20089;-76
2023/02/17 00:08:42;;;;;;;18.25;7.97;;;9.90;99.90;;;;;;5033782;28;20083;-76
2023/02/17 00:11:10;;;;;;;20.25;8.05;;;9.90;99.90;;;;;;5032276;28;20021;-76
2023/02/17 00:13:36;;;;;;;15.70;7.95;;;9.90;99.90;;;;;;5033823;28;20052;-76
2023/02/17 00:16:10;;;;;;;17.20;8.60;;;9.90;99.90;;;;;;5033419;28;20053;-76
2023/02/17 00:18:41;;;;;;;17.50;8.35;;;9.80;99.90;;;;;;5032536;28;20500;-76
2023/02/17 00:21:18;;;;;;;18.92;8.23;;;9.90;99.90;;;;;;5032309;28;20075;-76
2023/02/17 00:23:45;;;;;;;16.75;8.43;;;9.80;99.90;;;;;;5032595;28;20034;-76
2023/02/17 00:26:11;;;;;;;20.20;6.20;;;9.80;99.90;;;;;;5034362;28;20096;-76
2023/02/17 00:28:37;;;;;;;23.20;8.55;;;9.80;99.90;;;;;;5032265;28;20467;-76
2023/02/17 00:31:14;;;;;;;19.15;9.65;;;9.80;99.90;;;;;;5033385;28;20072;-76
2023/02/17 00:33:40;;;;;;;21.45;8.80;;;9.80;99.90;;;;;;5033315;28;20025;-76
2023/02/17 00:36:09;;;;;;;19.17;8.38;;;9.80;99.90;;;;;;5033244;28;20394;-76
2023/02/17 00:38:38;;;;;;;21.85;8.77;;;9.80;99.90;;;;;;5032091;28;20022;-76
2023/02/17 00:41:03;;;;;;;20.83;9.18;;;9.80;99.90;;;;;;5033456;28;20531;-76
2023/02/17 00:43:29;;;;;;;22.70;10.10;;;9.90;99.90;;;;;;5033396;28;20017;-76
2023/02/17 00:45:58;;;;;;;22.38;9.55;;;9.90;99.90;;;;;;5033380;28;20025;-76
2023/02/17 00:48:23;;;;;;;23.60;9.07;;;10.00;99.90;;;;;;5032265;28;20491;-76
2023/02/17 00:50:50;;;;;;;20.95;9.50;;;9.80;99.90;;;;;;5032137;28;20052;-76
2023/02/17 00:53:16;;;;;;;23.17;8.18;;;9.80;99.90;;;;;;5032255;28;20381;-76
2023/02/17 00:55:41;;;;;;;22.75;8.30;;;9.70;99.90;;;;;;5032189;28;20025;-76
2023/02/17 00:58:07;;;;;;;20.95;8.60;;;9.70;99.90;;;;;;5032198;28;20014;-75
2023/02/17 01:00:33;;;;;;;22.77;8.65;;;9.70;99.90;;;;;;5031875;28;20025;-75
2023/02/17 01:02:58;;;;;;;20.65;8.85;;;9.70;99.90;;;;;;5032176;28;20030;-75
2023/02/17 01:05:24;;;;;;;27.27;10.43;;;9.70;99.90;;;;;;5032081;28;20029;-76
2023/02/17 01:07:50;;;;;;;34.35;11.35;;;9.70;99.90;;;;;;5031950;28;20080;-76
2023/02/17 01:10:16;;;;;;;25.23;10.25;;;9.70;99.90;;;;;;5032643;28;20125;-75
2023/02/17 01:12:44;;;;;;;21.50;9.52;;;9.60;99.90;;;;;;5032847;28;20025;-76
2023/02/17 01:15:16;;;;;;;27.55;8.50;;;10.50;99.90;;;;;;5033161;28;20029;-76
2023/02/17 01:17:42;;;;;;;35.33;10.05;;;9.50;99.90;;;;;;5034208;28;20101;-76
2023/02/17 01:20:13;;;;;;;30.35;9.55;;;10.00;99.90;;;;;;5035096;28;20487;-76
2023/02/17 01:22:39;;;;;;;24.17;8.65;;;9.50;99.90;;;;;;5036304;28;20059;-76
2023/02/17 01:25:05;;;;;;;21.10;8.27;;;9.50;99.90;;;;;;5036436;28;20073;-76
2023/02/17 01:27:32;;;;;;;23.38;8.02;;;9.40;99.90;;;;;;5036139;28;20029;-76
2023/02/17 01:29:58;;;;;;;23.90;8.82;;;10.40;99.90;;;;;;5036476;28;20396;-76
2023/02/17 01:32:23;;;;;;;28.17;9.32;;;9.40;99.90;;;;;;5036173;28;20024;-76
2023/02/17 01:34:55;;;;;;;29.13;9.90;;;9.40;99.90;;;;;;5036327;28;20018;-76
2023/02/17 01:37:21;;;;;;;29.20;9.70;;;9.40;99.90;;;;;;5036562;28;20539;-76
2023/02/17 01:39:47;;;;;;;27.02;8.73;;;9.40;99.90;;;;;;5035851;28;20040;-76
2023/02/17 01:42:20;;;;;;;26.48;8.75;;;9.30;99.90;;;;;;5036801;28;20112;-76
2023/02/17 01:45:17;;;;;;;33.78;10.35;;;9.30;99.90;;;;;;5034738;28;20060;-76
2023/02/17 01:48:17;;;;;;;31.60;8.52;;;9.30;99.90;;;;;;5036033;28;20484;-76
2023/02/17 01:50:52;;;;;;;28.52;8.40;;;9.30;99.90;;;;;;4982980;28;20112;-76
2023/02/17 01:53:26;;;;;;;35.95;9.95;;;9.30;99.90;;;;;;5034568;28;20116;-76
2023/02/17 01:55:54;;;;;;;33.70;9.52;;;9.30;99.90;;;;;;5036016;28;20029;-76
2023/02/17 01:58:22;;;;;;;30.60;9.03;;;9.20;99.90;;;;;;5034501;28;20392;-76
2023/02/17 02:00:53;;;;;;;30.13;9.30;;;9.10;99.90;;;;;;5034419;28;20257;-76
2023/02/17 02:03:19;;;;;;;27.60;9.40;;;9.10;99.90;;;;;;5036266;28;20045;-76
2023/02/17 02:05:46;;;;;;;32.97;9.50;;;9.10;99.90;;;;;;5035703;28;20132;-76
2023/02/17 02:08:14;;;;;;;33.08;9.07;;;9.10;99.90;;;;;;5035435;28;20057;-77
2023/02/17 02:10:40;;;;;;;23.63;8.52;;;9.30;99.90;;;;;;5035693;28;20096;-77
2023/02/17 02:13:06;;;;;;;26.27;8.82;;;9.00;99.90;;;;;;5035332;28;20048;-77
2023/02/17 02:15:56;;;;;;;31.20;8.55;;;9.00;99.90;;;;;;5035425;28;20053;-77
2023/02/17 02:18:45;;;;;;;27.20;8.68;;;9.40;99.90;;;;;;5035347;28;20021;-77
2023/02/17 02:21:11;;;;;;;;;;;9.00;99.90;;;;;;5034193;28;20123;-77
2023/02/17 02:23:49;;;;;;;34.90;10.35;;;8.90;99.90;;;;;;5042493;22;19956;-75
2023/02/17 02:26:30;;;;;;;32.85;10.07;;;8.90;99.90;;;;;;5035603;28;20390;-75
2023/02/17 02:29:11;;;;;;;31.33;10.70;;;8.90;99.90;;;;;;5034762;28;20353;-76
2023/02/17 02:31:48;;;;;;;27.67;8.70;;;9.00;99.90;;;;;;5033699;28;20080;-76
2023/02/17 02:34:22;;;;;;;29.00;8.02;;;9.00;99.90;;;;;;5035029;28;20025;-75
2023/02/17 02:37:02;;;;;;;27.30;7.97;;;8.90;99.90;;;;;;5035144;28;20538;-76
2023/02/17 02:39:37;;;;;;;29.42;9.45;;;8.90;99.90;;;;;;5033987;28;20080;-76
2023/02/17 02:42:07;;;;;;;26.40;7.30;;;9.00;99.90;;;;;;5033457;28;20044;-76
2023/02/17 02:44:33;;;;;;;25.83;6.95;;;9.00;99.90;;;;;;5033318;28;20025;-76
2023/02/17 02:47:02;;;;;;;19.58;6.72;;;9.00;99.90;;;;;;5034864;28;20125;-75
2023/02/17 02:49:29;;;;;;;22.00;7.15;;;9.20;99.90;;;;;;5033341;28;20025;-75
2023/02/17 02:52:13;;;;;;;23.85;5.85;;;10.40;99.90;;;;;;5034534;28;20029;-75
2023/02/17 02:55:01;;;;;;;16.35;6.40;;;8.90;99.90;;;;;;5033266;28;20028;-75
2023/02/17 02:57:57;;;;;;;24.40;8.13;;;8.90;99.90;;;;;;5033365;28;20021;-76
2023/02/17 03:00:37;;;;;;;19.85;6.22;;;8.90;99.90;;;;;;5034825;28;20120;-76
2023/02/17 03:03:18;;;;;;;28.98;7.40;;;9.00;99.90;;;;;;5034312;28;20036;-76
2023/02/17 03:06:01;;;;;;;26.73;7.55;;;8.90;99.90;;;;;;5033023;28;20025;-76
2023/02/17 03:08:48;;;;;;;21.58;6.18;;;9.00;99.90;;;;;;5033366;28;20030;-76
2023/02/17 03:11:15;;;;;;;26.38;7.57;;;9.00;99.90;;;;;;5033408;28;20025;-76
2023/02/17 03:13:41;;;;;;;23.10;7.15;;;9.00;99.90;;;;;;5032954;28;20030;-76
2023/02/17 03:16:07;;;;;;;22.60;6.68;;;9.00;99.90;;;;;;5032807;28;20032;-76
2023/02/17 03:18:34;;;;;;;26.05;7.18;;;9.00;99.90;;;;;;5034106;28;20044;-75
2023/02/17 03:21:10;;;;;;;25.25;7.63;;;9.00;99.90;;;;;;5032713;28;20098;-76
2023/02/17 03:23:36;;;;;;;20.98;6.05;;;9.00;99.90;;;;;;5032688;28;20030;-75
2023/02/17 03:26:01;;;;;;;23.10;6.30;;;9.50;99.90;;;;;;5034009;28;20032;-75
2023/02/17 03:28:27;;;;;;;21.00;7.43;;;9.00;99.90;;;;;;5032612;28;20036;-76
2023/02/17 03:30:53;;;;;;;24.98;6.45;;;9.00;99.90;;;;;;5032441;28;20522;-76
2023/02/17 03:33:18;;;;;;;20.35;5.50;;;9.00;99.90;;;;;;5032710;28;20104;-76
2023/02/17 03:35:44;;;;;;;28.20;7.85;;;9.10;99.90;;;;;;5033852;28;20025;-75
2023/02/17 03:38:09;;;;;;;20.98;8.10;;;9.00;99.90;;;;;;5032512;28;20032;-76
2023/02/17 03:40:35;;;;;;;30.20;8.20;;;9.00;99.90;;;;;;5033467;28;20022;-76
2023/02/17 03:43:04;;;;;;;29.13;8.15;;;9.00;99.90;;;;;;5032491;28;20028;-75
2023/02/17 03:45:29;;;;;;;23.67;7.68;;;9.00;99.90;;;;;;5032470;28;20056;-76
2023/02/17 03:47:55;;;;;;;34.42;9.43;;;9.10;99.90;;;;;;5032492;28;20026;-76
2023/02/17 03:50:20;;;;;;;26.35;9.50;;;9.10;99.90;;;;;;5032148;28;20463;-75
2023/02/17 03:52:46;;;;;;;35.45;10.98;;;9.10;99.90;;;;;;5033724;28;20025;-76
2023/02/17 03:55:12;;;;;;;31.52;10.95;;;9.10;99.90;;;;;;5032121;28;20021;-76
2023/02/17 03:57:37;;;;;;;32.35;10.63;;;9.20;99.90;;;;;;5032197;28;20028;-76
2023/02/17 04:00:05;;;;;;;34.40;11.68;;;9.10;99.90;;;;;;5032410;28;20052;-75
2023/02/17 04:02:31;;;;;;;28.88;8.35;;;9.20;99.90;;;;;;5032041;28;20079;-75
2023/02/17 04:04:56;;;;;;;31.98;12.05;;;11.60;99.90;;;;;;5031917;28;20033;-75
2023/02/17 04:07:25;;;;;;;37.63;14.05;;;9.20;99.90;;;;;;5032032;28;20029;-75
2023/02/17 04:09:50;;;;;;;36.00;13.55;;;9.30;99.90;;;;;;5033434;28;20365;-75
2023/02/17 04:12:16;;;;;;;43.17;14.35;;;9.30;99.90;;;;;;5033340;28;20044;-75
2023/02/17 04:14:41;;;;;;;39.88;14.80;;;9.30;99.90;;;;;;5033722;28;20022;-76
2023/02/17 04:17:07;;;;;;;39.58;13.18;;;9.30;99.90;;;;;;5031975;28;20476;-76
2023/02/17 04:19:35;;;;;;;39.50;14.27;;;9.30;99.90;;;;;;5032041;28;20032;-76
2023/02/17 04:22:01;;;;;;;43.20;13.55;;;9.20;99.90;;;;;;5033372;28;20040;-75
2023/02/17 04:24:27;;;;;;;35.25;13.95;;;9.40;99.90;;;;;;5033053;28;20123;-75
2023/02/17 04:26:55;;;;;;;37.80;14.13;;;9.40;99.90;;;;;;5031896;28;20053;-75
2023/02/17 04:29:20;;;;;;;34.43;12.77;;;9.60;99.90;;;;;;5033264;28;20032;-75
2023/02/17 04:31:46;;;;;;;34.45;13.10;;;9.40;99.90;;;;;;5031967;28;20343;-75
2023/02/17 04:34:11;;;;;;;33.10;10.35;;;9.40;99.90;;;;;;5031968;28;20021;-76
2023/02/17 04:36:37;;;;;;;29.23;10.63;;;9.50;99.90;;;;;;5033641;28;20018;-76
2023/02/17 04:39:03;;;;;;;31.52;12.07;;;11.00;99.90;;;;;;5033116;28;20384;-76
2023/02/17 04:41:28;;;;;;;29.20;10.25;;;9.40;99.90;;;;;;5033345;28;20472;-76
2023/02/17 04:43:54;;;;;;;28.45;10.75;;;9.40;99.90;;;;;;5031907;28;20517;-76
2023/02/17 04:46:19;;;;;;;29.27;9.90;;;9.40;99.90;;;;;;5033690;28;20097;-76
2023/02/17 04:48:45;;;;;;;21.85;7.60;;;9.50;99.90;;;;;;5031853;28;20018;-76
2023/02/17 04:51:10;;;;;;;24.35;8.98;;;9.50;99.90;;;;;;5033034;28;20051;-75
2023/02/17 04:53:36;;;;;;;20.77;9.25;;;9.50;99.90;;;;;;5034476;28;20022;-75
2023/02/17 04:56:02;;;;;;;24.10;8.20;;;9.50;99.90;;;;;;5036814;28;20028;-75
2023/02/17 04:58:30;;;;;;;31.25;8.70;;;9.50;99.90;;;;;;5037237;28;20021;-75
2023/02/17 05:00:58;;;;;;;24.17;8.00;;;9.60;99.90;;;;;;5036027;28;20079;-75
2023/02/17 05:03:24;;;;;;;24.40;10.73;;;9.60;99.90;;;;;;5036163;28;20044;-76
2023/02/17 05:05:49;;;;;;;19.92;7.85;;;9.90;99.90;;;;;;5035991;28;20026;-75
2023/02/17 05:08:15;;;;;;;28.05;8.80;;;9.60;99.90;;;;;;5037139;28;20048;-75
2023/02/17 05:10:40;;;;;;;25.52;8.48;;;9.60;99.90;;;;;;5035999;28;20112;-76
2023/02/17 05:13:06;;;;;;;27.80;9.05;;;10.60;99.90;;;;;;5035906;28;20075;-75
2023/02/17 05:15:32;;;;;;;42.15;11.57;;;9.60;99.90;;;;;;5036970;28;20141;-75
2023/02/17 05:18:00;;;;;;;30.52;10.55;;;9.60;99.90;;;;;;5035522;28;20029;-76
2023/02/17 05:20:26;;;;;;;27.70;9.98;;;9.60;99.90;;;;;;5036353;28;20025;-76
2023/02/17 05:22:52;;;;;;;22.00;8.68;;;9.70;99.90;;;;;;5037615;28;20029;-76
2023/02/17 05:25:18;;;;;;;25.60;8.93;;;9.70;99.90;;;;;;5034479;28;20064;-76
2023/02/17 05:27:44;;;;;;;29.73;10.88;;;9.70;99.90;;;;;;5034298;28;20040;-76
2023/02/17 05:30:10;;;;;;;29.58;11.30;;;9.70;99.90;;;;;;5034345;28;20033;-76
2023/02/17 05:32:35;;;;;;;34.17;10.60;;;9.70;99.90;;;;;;5036063;28;20091;-76
2023/02/17 05:35:01;;;;;;;33.45;12.02;;;9.70;99.90;;;;;;5034372;28;20032;-76
2023/02/17 05:37:29;;;;;;;32.33;11.98;;;9.70;99.90;;;;;;5034176;28;20112;-75
2023/02/17 05:39:55;;;;;;;27.15;11.23;;;9.80;99.90;;;;;;5035575;28;20033;-76
2023/02/17 05:42:20;;;;;;;29.00;11.57;;;9.80;99.90;;;;;;5034261;28;20025;-75
2023/02/17 05:44:49;;;;;;;29.25;10.73;;;9.70;99.90;;;;;;5036184;28;20068;-75
2023/02/17 05:47:15;;;;;;;33.78;12.52;;;9.70;99.90;;;;;;5035942;28;20029;-76
2023/02/17 05:49:40;;;;;;;32.42;12.23;;;9.70;99.90;;;;;;5035758;28;20037;-76
2023/02/17 05:52:06;;;;;;;32.75;11.70;;;10.30;99.90;;;;;;5034571;28;20014;-76
2023/02/17 05:54:34;;;;;;;29.50;9.63;;;9.70;99.90;;;;;;5035499;28;20109;-76
2023/02/17 05:57:00;;;;;;;27.30;11.05;;;9.60;99.90;;;;;;5034097;28;20057;-75
2023/02/17 05:59:26;;;;;;;31.48;12.10;;;9.70;99.90;;;;;;5035209;28;20037;-75
2023/02/17 06:01:51;;;;;;;34.42;11.57;;;9.70;99.90;;;;;;5035031;28;20030;-75
2023/02/17 06:04:17;;;;;;;34.65;12.48;;;9.70;99.90;;;;;;5035259;28;20096;-75
2023/02/17 06:06:43;;;;;;;31.75;11.60;;;9.70;99.90;;;;;;5035289;28;20033;-75
2023/02/17 06:09:08;;;;;;;37.55;13.25;;;9.70;99.90;;;;;;5033904;28;20112;-75
2023/02/17 06:11:34;;;;;;;43.33;13.45;;;9.70;99.90;;;;;;5033891;28;20029;-75
2023/02/17 06:14:00;;;;;;;32.25;11.73;;;9.70;99.90;;;;;;5035100;28;20097;-75
2023/02/17 06:16:25;;;;;;;33.42;12.07;;;9.70;99.90;;;;;;5033754;28;20013;-75
2023/02/17 06:18:51;;;;;;;35.08;11.82;;;9.70;99.90;;;;;;5034928;28;20018;-75
2023/02/17 06:21:16;;;;;;;36.22;12.50;;;9.80;99.90;;;;;;5032957;28;20059;-75
2023/02/17 06:23:42;;;;;;;33.90;10.95;;;9.70;99.90;;;;;;4949321;28;2463014;-75
2023/02/17 06:26:07;;;;;;;33.42;10.25;;;9.80;99.90;;;;;;5021923;28;20384;-75
2023/02/17 06:28:33;;;;;;;39.13;12.85;;;9.80;99.90;;;;;;5036085;28;20105;-75
2023/02/17 06:30:58;;;;;;;34.47;11.38;;;9.70;99.90;;;;;;5034418;28;20037;-75
2023/02/17 06:33:24;;;;;;;29.50;9.10;;;9.80;99.90;;;;;;5036029;28;20021;-76
2023/02/17 06:35:50;;;;;;;33.35;9.85;;;9.80;99.90;;;;;;5034500;28;20108;-75
2023/02/17 06:38:17;;;;;;;26.27;8.88;;;9.80;99.90;;;;;;5034656;28;20131;-75
2023/02/17 06:40:42;;;;;;;31.92;10.32;;;9.80;99.90;;;;;;5034412;28;20036;-75
2023/02/17 06:43:08;;;;;;;32.58;10.48;;;9.80;99.90;;;;;;5035594;28;20025;-75
2023/02/17 06:45:33;;;;;;;24.92;7.78;;;9.90;99.90;;;;;;5036242;28;20033;-75
2023/02/17 06:47:59;;;;;;;36.42;11.15;;;9.80;99.90;;;;;;5033941;28;20468;-76
2023/02/17 06:50:24;;;;;;;33.83;9.75;;;9.90;99.90;;;;;;5033494;28;20381;-75
2023/02/17 06:52:50;;;;;;;28.95;9.30;;;9.90;99.90;;;;;;5035065;28;20025;-75
2023/02/17 06:55:16;;;;;;;29.75;8.13;;;9.80;99.90;;;;;;5033550;28;20115;-75
2023/02/17 06:57:41;;;;;;;33.75;9.75;;;9.80;99.90;;;;;;5035208;28;20021;-75
2023/02/17 07:00:07;;;;;;;34.60;9.98;;;9.80;99.90;;;;;;5033274;28;20059;-75
2023/02/17 07:02:33;;;;;;;29.00;8.93;;;9.90;99.90;;;;;;5033285;28;20460;-76
2023/02/17 07:04:58;;;;;;;22.67;7.75;;;9.90;99.90;;;;;;5034497;28;20373;-75
2023/02/17 07:07:24;;;;;;;24.45;8.70;;;10.00;99.90;;;;;;5034452;28;20021;-75
2023/02/17 07:09:50;;;;;;;28.02;9.52;;;10.00;99.90;;;;;;5034366;28;20021;-75
2023/02/17 07:12:15;;;;;;;24.92;8.68;;;10.00;99.90;;;;;;5033166;28;20025;-75
2023/02/17 07:14:41;;;;;;;27.30;8.25;;;10.00;99.90;;;;;;5032874;28;20089;-75
2023/02/17 07:17:06;;;;;;;28.38;8.55;;;10.00;99.90;;;;;;5033957;28;20022;-75
2023/02/17 07:19:32;;;;;;;26.60;8.10;;;10.00;99.90;;;;;;5034142;28;20072;-75
2023/02/17 07:21:57;;;;;;;21.13;8.00;;;10.00;99.90;;;;;;5034097;28;20029;-75
2023/02/17 07:24:23;;;;;;;17.85;7.78;;;10.10;99.90;;;;;;5032755;28;20033;-74
2023/02/17 07:26:49;;;;;;;21.77;7.55;;;10.10;99.90;;;;;;5033055;28;20025;-75
2023/02/17 07:29:14;;;;;;;21.52;7.45;;;10.20;99.90;;;;;;5034121;28;20052;-75
2023/02/17 07:31:40;;;;;;;20.63;6.45;;;10.10;99.90;;;;;;5033887;28;20022;-75
2023/02/17 07:34:05;;;;;;;21.85;6.10;;;10.20;99.90;;;;;;5033982;28;20014;-75
2023/02/17 07:36:31;;;;;;;22.10;6.07;;;10.20;99.90;;;;;;5033030;28;20014;-75
2023/02/17 07:38:57;;;;;;;18.95;6.50;;;10.20;99.90;;;;;;5032553;28;20103;-75
2023/02/17 07:41:27;;;;;;;16.15;6.05;;;10.20;99.90;;;;;;5032783;28;20420;-75
2023/02/17 07:43:56;;;;;;;23.73;7.05;;;10.30;99.90;;;;;;5032550;28;20096;-75
2023/02/17 07:46:23;;;;;;;13.93;5.65;;;10.30;99.90;;;;;;5033848;28;20037;-75
2023/02/17 07:48:48;;;;;;;17.27;6.07;;;10.30;99.90;;;;;;5032562;28;20025;-75
2023/02/17 07:51:17;;;;;;;14.60;5.38;;;10.30;99.90;;;;;;5032274;28;20024;-75
2023/02/17 07:53:43;;;;;;;20.35;6.25;;;10.80;99.90;;;;;;5033694;28;20059;-75
2023/02/17 07:56:12;;;;;;;18.08;6.30;;;10.50;99.90;;;;;;5032443;28;20025;-76
2023/02/17 07:58:40;;;;;;;18.00;6.47;;;10.50;99.90;;;;;;5032271;28;20438;-76
2023/02/17 08:01:14;;;;;;;14.05;5.95;;;10.50;99.90;;;;;;5033616;28;20079;-76
2023/02/17 08:03:40;;;;;;;15.20;6.45;;;10.50;99.90;;;;;;5032260;28;20036;-76
2023/02/17 08:06:10;;;;;;;14.45;6.60;;;10.50;99.90;;;;;;5032533;28;20022;-75
2023/02/17 08:14:04;;;;;;;17.92;6.20;;;10.60;99.90;;;;;;5034282;28;20510;-76
2023/02/17 08:16:29;;;;;;;17.45;6.85;;;10.70;99.90;;;;;;5033976;28;20108;-76
2023/02/17 08:18:55;;;;;;;15.13;6.90;;;10.70;99.90;;;;;;5033395;28;20025;-76
2023/02/17 08:21:22;;;;;;;12.88;5.70;;;10.70;99.90;;;;;;5033859;28;20032;-76
2023/02/17 08:23:48;;;;;;;18.27;6.60;;;10.80;99.90;;;;;;5031894;28;20087;-76
2023/02/17 08:26:14;;;;;;;10.98;5.28;;;10.80;99.90;;;;;;5032415;28;20061;-76
2023/02/17 08:28:40;;;;;;;20.52;8.48;;;10.70;99.90;;;;;;5034843;28;20021;-76
2023/02/17 08:31:13;;;;;;;17.70;6.65;;;10.70;99.90;;;;;;5037200;28;20033;-76
2023/02/17 08:33:38;;;;;;;11.77;4.97;;;10.70;99.90;;;;;;5037249;28;20029;-76
2023/02/17 08:36:08;;;;;;;16.17;6.47;;;10.70;99.90;;;;;;5037841;28;20445;-76
2023/02/17 08:38:34;;;;;;;15.35;7.18;;;10.70;99.90;;;;;;5036518;28;20018;-76
2023/02/17 08:40:59;;;;;;;19.65;6.80;;;10.70;99.90;;;;;;5036627;28;20025;-76
2023/02/17 08:43:25;;;;;;;14.32;5.90;;;10.70;99.90;;;;;;5038128;28;20435;-76
2023/02/17 08:45:51;;;;;;;19.00;6.38;;;10.70;99.90;;;;;;5036433;28;20140;-76
2023/02/17 08:48:16;;;;;;;19.88;7.32;;;10.70;99.90;;;;;;5037976;28;20369;-76
2023/02/17 08:50:42;;;;;;;12.45;5.85;;;10.70;99.90;;;;;;5038255;28;20030;-76
2023/02/17 08:53:07;;;;;;;17.00;7.72;;;10.70;99.90;;;;;;5037517;28;20025;-76
2023/02/17 08:55:34;;;;;;;18.55;8.25;;;10.80;99.90;;;;;;5037638;28;20025;-76
2023/02/17 08:57:59;;;;;;;18.25;7.57;;;10.90;99.90;;;;;;5036733;28;20017;-76
2023/02/17 09:00:25;;;;;;;19.55;8.43;;;10.70;99.90;;;;;;5037617;28;20025;-76
2023/02/17 09:02:53;;;;;;;20.48;7.85;;;10.70;99.90;;;;;;5036512;28;20025;-76
2023/02/17 09:05:19;;;;;;;16.35;6.90;;;10.70;99.90;;;;;;5037971;28;20100;-76
2023/02/17 09:07:45;;;;;;;19.05;8.00;;;10.70;99.90;;;;;;5035738;28;20057;-76
2023/02/17 09:10:11;;;;;;;16.80;7.68;;;10.80;99.90;;;;;;5036362;28;20401;-76
2023/02/17 09:12:37;;;;;;;17.38;7.38;;;12.40;99.90;;;;;;5037348;28;20022;-76
2023/02/17 09:15:03;;;;;;;19.15;8.73;;;10.70;99.90;;;;;;5036191;28;20502;-76
2023/02/17 09:17:28;;;;;;;19.85;8.10;;;10.80;99.90;;;;;;5037340;28;20022;-76
2023/02/17 09:19:54;;;;;;;20.50;7.63;;;10.80;99.90;;;;;;5036154;28;20024;-76
2023/02/17 09:22:19;;;;;;;16.05;8.52;;;11.00;99.90;;;;;;5037931;28;20025;-76
2023/02/17 09:24:45;;;;;;;19.85;8.40;;;10.90;99.90;;;;;;5035855;28;20519;-76
2023/02/17 09:27:14;;;;;;;15.55;8.40;;;10.80;99.90;;;;;;5037027;28;20026;-76
2023/02/17 09:29:39;;;;;;;;;;;11.20;99.90;;;;;;5037606;28;20025;-76
2023/02/17 09:32:07;;;;;;;13.30;6.07;;;11.00;99.90;;;;;;5035815;28;20370;-76
2023/02/17 09:34:37;;;;;;;18.55;7.50;;;11.00;99.90;;;;;;5035847;28;20032;-76
2023/02/17 09:37:03;;;;;;;18.25;7.50;;;11.00;99.90;;;;;;5037597;28;20068;-76
2023/02/17 09:39:29;;;;;;;14.77;7.05;;;11.10;99.90;;;;;;5036127;28;20484;-76
2023/02/17 09:41:56;;;;;;;15.75;6.78;;;11.10;99.90;;;;;;5035306;28;20052;-76
2023/02/17 09:44:45;;;;;;;16.17;6.00;;;11.10;99.90;;;;;;5035626;28;20444;-76
2023/02/17 09:47:18;;;;;;;12.93;4.72;;;11.10;99.90;;;;;;5036621;28;20017;-75
2023/02/17 09:50:00;;;;;;;11.23;4.25;;;11.10;99.90;;;;;;5035538;28;20035;-76
2023/02/17 09:52:31;;;;;;;9.55;5.18;;;11.10;99.90;;;;;;5035800;28;20057;-76
2023/02/17 09:55:07;;;;;;;10.07;5.15;;;11.10;99.90;;;;;;5036734;28;20475;-76
2023/02/17 09:57:40;;;;;;;10.15;4.30;;;11.20;99.90;;;;;;5035555;28;20018;-76
2023/02/17 10:00:11;;;;;;;16.70;5.50;;;11.10;99.90;;;;;;5037351;28;20029;-76
2023/02/17 10:02:43;;;;;;;13.43;3.72;;;11.10;99.90;;;;;;5036401;28;20030;-76
2023/02/17 10:05:13;;;;;;;9.73;4.05;;;11.10;99.90;;;;;;5035461;28;20060;-76
2023/02/17 10:08:04;;;;;;;13.30;4.85;;;11.10;99.90;;;;;;5034468;28;20021;-76
2023/02/17 10:10:51;;;;;;;13.70;2.65;;;11.10;99.90;;;;;;5034310;28;20017;-76
2023/02/17 10:13:20;;;;;;;11.63;3.22;;;11.20;99.90;;;;;;5034128;28;20072;-76
2023/02/17 10:15:50;;;;;;;10.82;3.17;;;11.20;99.90;;;;;;5034121;28;20029;-76
2023/02/17 10:18:40;;;;;;;7.85;3.35;;;11.20;99.90;;;;;;5034168;28;20076;-76
2023/02/17 10:21:20;;;;;;;13.52;4.15;;;11.20;99.90;;;;;;5035254;28;20108;-76
2023/02/17 10:23:47;;;;;;;6.25;3.17;;;11.30;99.90;;;;;;5033924;28;20449;-76
2023/02/17 10:26:25;;;;;;;7.03;3.10;;;11.40;99.90;;;;;;5035187;28;20025;-76
2023/02/17 10:28:52;;;;;;;7.97;3.33;;;11.20;99.90;;;;;;5035153;28;20108;-76
2023/02/17 10:31:30;;;;;;;10.20;3.13;;;11.30;99.90;;;;;;5035074;28;20504;-76
2023/02/17 10:34:11;;;;;;;8.63;3.03;;;11.30;99.90;;;;;;5035294;28;20025;-76
2023/02/17 10:36:58;;;;;;;12.25;3.42;;;11.30;99.90;;;;;;5035134;28;20092;-76
2023/02/17 10:39:38;;;;;;;11.88;5.03;;;11.40;99.90;;;;;;5035073;28;20032;-76
2023/02/17 10:42:05;;;;;;;11.48;4.20;;;11.30;99.90;;;;;;5033596;28;20510;-76
2023/02/17 10:44:35;;;;;;;9.63;3.90;;;11.40;99.90;;;;;;5034874;28;20024;-76
2023/02/17 10:47:02;;;;;;;13.07;4.13;;;11.30;99.90;;;;;;5034828;28;20083;-76
2023/02/17 10:49:33;;;;;;;10.73;4.88;;;11.40;99.90;;;;;;5033203;28;20039;-76
2023/02/17 10:52:38;;;;;;;11.02;3.40;;;11.40;99.90;;;;;;5034154;28;20021;-76
2023/02/17 10:55:10;;;;;;;11.10;4.25;;;11.30;99.90;;;;;;5033459;28;20022;-76
2023/02/17 10:57:38;;;;;;;8.88;4.32;;;11.40;99.90;;;;;;5034821;28;20022;-76
2023/02/17 11:00:07;;;;;;;11.55;4.20;;;11.40;99.90;;;;;;5033997;28;20033;-76
2023/02/17 11:02:43;;;;;;;10.32;4.13;;;11.40;99.90;;;;;;5033139;28;20025;-76
2023/02/17 11:05:27;;;;;;;13.18;5.07;;;11.40;99.90;;;;;;5034378;28;20026;-76
2023/02/17 11:08:30;;;;;;;8.77;3.90;;;11.40;99.90;;;;;;5033394;28;20124;-76
2023/02/17 11:11:18;;;;;;;8.65;4.10;;;11.40;99.90;;;;;;5034363;28;20021;-75
2023/02/17 11:14:04;;;;;;;9.23;4.60;;;11.50;99.90;;;;;;5034562;28;20067;-76
2023/02/17 11:16:38;;;;;;;12.25;4.95;;;14.40;99.90;;;;;;5023837;28;20052;-76
2023/02/17 11:19:07;;;;;;;10.82;5.00;;;11.50;99.90;;;;;;5034230;28;20021;-76
2023/02/17 11:21:32;;;;;;;9.50;4.97;;;11.40;99.90;;;;;;5034245;28;20470;-76
2023/02/17 11:24:04;;;;;;;7.70;4.32;;;11.50;99.90;;;;;;5034369;28;20029;-76
2023/02/17 11:26:33;;;;;;;10.15;4.70;;;11.40;99.90;;;;;;5032769;28;20026;-76
2023/02/17 11:29:16;;;;;;;13.05;5.75;;;11.30;99.90;;;;;;5033084;28;20385;-76
2023/02/17 11:32:05;;;;;;;9.65;4.30;;;11.40;99.90;;;;;;5034141;28;20496;-76
2023/02/17 11:34:33;;;;;;;13.32;4.57;;;11.40;99.90;;;;;;5034100;28;20025;-76
2023/02/17 11:37:20;;;;;;;11.85;5.00;;;11.80;99.90;;;;;;5032696;28;20503;-76
2023/02/17 11:39:48;;;;;;;13.93;5.30;;;11.40;99.90;;;;;;5034262;28;20030;-75
2023/02/17 11:42:29;;;;;;;7.88;4.05;;;11.40;99.90;;;;;;5032621;28;20029;-76
2023/02/17 11:44:57;;;;;;;13.60;4.55;;;11.30;99.90;;;;;;5032566;28;20083;-76
2023/02/17 11:47:42;;;;;;;11.32;4.97;;;11.30;99.90;;;;;;5032702;28;20021;-76
2023/02/17 11:50:33;;;;;;;10.18;4.75;;;11.30;99.90;;;;;;5032483;28;20121;-76
2023/02/17 11:53:29;;;;;;;13.40;4.50;;;11.30;99.90;;;;;;5032595;28;20022;-76
2023/02/17 11:56:05;;;;;;;12.30;5.15;;;11.30;99.90;;;;;;5032585;28;20021;-76
2023/02/17 11:58:52;;;;;;;12.25;6.45;;;11.20;99.90;;;;;;5032303;28;20082;-76
2023/02/17 12:01:33;;;;;;;11.38;4.65;;;11.20;99.90;;;;;;5032181;28;20033;-76
2023/02/17 12:04:10;;;;;;;16.70;5.65;;;11.10;99.90;;;;;;5032308;28;20060;-76
2023/02/17 12:07:00;;;;;;;13.77;6.10;;;11.10;99.90;;;;;;5033763;28;20026;-76
2023/02/17 12:09:32;;;;;;;12.15;4.10;;;11.10;99.90;;;;;;5034693;28;20033;-76
2023/02/17 12:12:10;;;;;;;17.98;5.00;;;11.10;99.90;;;;;;5033393;28;20112;-76
2023/02/17 12:14:39;;;;;;;11.20;3.97;;;11.10;99.90;;;;;;5034805;28;20376;-76
2023/02/17 12:17:29;;;;;;;8.32;3.67;;;11.00;99.90;;;;;;5033118;28;20065;-75
2023/02/17 12:20:00;;;;;;;12.88;3.67;;;11.00;99.90;;;;;;5033069;28;20030;-76
2023/02/17 12:22:56;;;;;;;9.27;3.42;;;11.00;99.90;;;;;;5034221;28;20021;-76
2023/02/17 12:25:25;;;;;;;13.02;2.20;;;10.90;99.90;;;;;;5032759;28;20036;-76
2023/02/17 12:28:03;;;;;;;6.60;2.60;;;10.90;99.90;;;;;;5034086;28;20041;-75
2023/02/17 12:30:46;;;;;;;7.35;2.25;;;10.90;99.90;;;;;;5034414;28;20048;-76
2023/02/17 12:33:33;;;;;;;9.77;2.35;;;10.90;99.90;;;;;;5034132;28;20022;-76
2023/02/17 12:36:06;;;;;;;11.23;2.38;;;10.90;99.90;;;;;;5033018;28;20112;-75
2023/02/17 12:38:40;;;;;;;10.65;1.55;;;11.00;99.90;;;;;;5033043;28;20542;-76
2023/02/17 12:41:33;;;;;;;12.63;2.40;;;11.10;99.90;;;;;;5034271;28;20060;-76
2023/02/17 12:44:06;;;;;;;8.60;1.58;;;11.10;99.90;;;;;;5026885;28;20404;-76
2023/02/17 12:46:42;;;;;;;6.85;0.95;;;11.10;99.90;;;;;;5032869;28;20026;-76
2023/02/17 12:49:20;;;;;;;8.25;1.73;;;11.10;99.90;;;;;;5033966;28;20040;-76
2023/02/17 12:51:56;;;;;;;8.23;1.80;;;11.10;99.90;;;;;;5034032;28;20044;-76
2023/02/17 12:54:43;;;;;;;9.50;1.08;;;11.10;99.90;;;;;;5034096;28;20299;-76
2023/02/17 12:57:21;;;;;;;5.28;1.70;;;11.10;99.90;;;;;;5032708;28;20021;-76
2023/02/17 12:59:49;;;;;;;8.57;1.17;;;11.10;99.90;;;;;;5033018;28;20037;-76
2023/02/17 13:02:21;;;;;;;8.60;1.95;;;11.20;99.90;;;;;;5033864;28;20025;-76